Time;durP1;ratioP1;P1;durP2;ratioP2;P2;SDS_P1;SDS_P2;PMS_P1;PMS_P2;Temp;Humidity;BMP_temperature;BMP_pressure;BME280_temperature;BME280_humidity;BME280_pressure;Samples;Min_cycle;Max_cycle;Signal;HPM_P1;HPM_P2
2021/09/24 00:00:15;;;;;;;25.40;6.13;;;13.40;99.90;;;;;;5071406;28;20028;-48
2021/09/24 00:02:41;;;;;;;30.15;6.78;;;13.40;99.90;;;;;;5070082;28;20029;-48
2021/09/24 00:05:08;;;;;;;29.50;7.25;;;13.30;99.90;;;;;;5071040;28;20036;-49
2021/09/24 00:07:33;;;;;;;31.77;5.95;;;13.20;99.90;;;;;;5070588;28;20028;-49
2021/09/24 00:09:59;;;;;;;26.75;6.78;;;13.20;99.90;;;;;;5071300;28;20036;-50
2021/09/24 00:12:25;;;;;;;28.20;7.30;;;13.20;99.90;;;;;;5071059;28;20402;-50
2021/09/24 00:14:50;;;;;;;21.92;6.25;;;13.20;99.90;;;;;;5071163;28;20402;-48
2021/09/24 00:17:16;;;;;;;22.73;7.28;;;13.20;99.90;;;;;;5070495;28;20488;-48
2021/09/24 00:19:41;;;;;;;35.30;6.57;;;13.20;99.90;;;;;;5070940;28;20039;-48
2021/09/24 00:22:07;;;;;;;28.05;6.03;;;13.10;99.90;;;;;;5063659;28;20027;-48
2021/09/24 00:24:32;;;;;;;42.22;8.38;;;13.10;99.90;;;;;;5062698;28;20470;-50
2021/09/24 00:26:58;;;;;;;32.83;6.65;;;13.10;99.90;;;;;;5070373;28;20033;-48
2021/09/24 00:29:23;;;;;;;32.17;8.00;;;13.00;99.90;;;;;;5071322;28;20029;-49
2021/09/24 00:31:49;;;;;;;28.80;7.70;;;13.10;99.90;;;;;;5071125;28;20478;-48
2021/09/24 00:34:14;;;;;;;42.10;8.02;;;13.10;99.90;;;;;;5071275;28;20451;-50
2021/09/24 00:36:40;;;;;;;29.48;8.15;;;13.10;99.90;;;;;;5069940;28;20024;-48
2021/09/24 00:39:05;;;;;;;33.70;7.15;;;13.00;99.90;;;;;;5070819;28;20067;-49
2021/09/24 00:41:31;;;;;;;25.17;7.03;;;13.00;99.90;;;;;;5071086;28;20031;-50
2021/09/24 00:43:56;;;;;;;31.25;9.30;;;13.00;99.90;;;;;;5070838;28;20379;-48
2021/09/24 00:46:22;;;;;;;31.00;6.47;;;13.00;99.90;;;;;;5069989;28;20531;-48
2021/09/24 00:48:47;;;;;;;32.90;7.15;;;13.00;99.90;;;;;;5070043;28;20063;-48
2021/09/24 00:51:14;;;;;;;33.58;7.93;;;13.00;99.90;;;;;;5070374;28;20104;-50
2021/09/24 00:53:39;;;;;;;35.33;6.65;;;13.00;99.90;;;;;;5054412;28;20116;-48
2021/09/24 00:56:07;;;;;;;29.90;6.88;;;13.00;99.90;;;;;;5050505;28;20112;-49
2021/09/24 00:58:32;;;;;;;27.52;7.32;;;12.90;99.90;;;;;;5049862;28;20051;-51
2021/09/24 01:00:58;;;;;;;30.95;7.03;;;12.80;99.90;;;;;;5050371;28;20037;-48
2021/09/24 01:03:25;;;;;;;30.88;7.72;;;12.80;99.90;;;;;;5050601;28;20099;-48
2021/09/24 01:05:50;;;;;;;30.98;6.70;;;12.80;99.90;;;;;;5050303;28;20017;-49
2021/09/24 01:08:16;;;;;;;29.58;7.05;;;12.80;99.90;;;;;;5048241;28;20081;-48
2021/09/24 01:10:42;;;;;;;30.85;6.88;;;12.70;99.90;;;;;;5048938;28;20021;-48
2021/09/24 01:13:08;;;;;;;30.48;6.75;;;12.70;99.90;;;;;;5050139;28;20052;-48
2021/09/24 01:15:33;;;;;;;39.08;7.30;;;12.70;99.90;;;;;;5050131;28;20013;-49
2021/09/24 01:17:59;;;;;;;39.92;6.82;;;12.80;99.90;;;;;;5047986;28;20021;-48
2021/09/24 01:20:24;;;;;;;31.48;7.90;;;12.80;99.90;;;;;;5048769;28;20315;-50
2021/09/24 01:22:51;;;;;;;28.52;6.55;;;12.70;99.90;;;;;;5054588;28;20099;-51
2021/09/24 01:25:18;;;;;;;32.28;6.65;;;12.70;99.90;;;;;;5062809;28;20024;-50
2021/09/24 01:27:45;;;;;;;34.50;7.95;;;12.70;99.90;;;;;;5069612;28;20024;-48
2021/09/24 01:30:12;;;;;;;31.75;6.35;;;12.70;99.90;;;;;;5069953;28;20078;-50
2021/09/24 01:32:37;;;;;;;38.58;6.35;;;12.70;99.90;;;;;;5069947;28;20108;-50
2021/09/24 01:35:05;;;;;;;29.00;7.32;;;12.70;99.90;;;;;;5069640;28;20107;-49
2021/09/24 01:37:32;;;;;;;30.83;6.90;;;12.70;99.90;;;;;;5068589;28;20033;-49
2021/09/24 01:39:57;;;;;;;39.63;7.50;;;12.70;99.90;;;;;;5069549;28;20025;-49
2021/09/24 01:42:24;;;;;;;21.60;6.82;;;12.60;99.90;;;;;;5069485;28;20078;-46
2021/09/24 01:44:50;;;;;;;30.75;7.28;;;12.60;99.90;;;;;;5069581;28;20160;-49
2021/09/24 01:47:15;;;;;;;40.13;8.45;;;12.60;99.90;;;;;;5069180;28;20056;-49
2021/09/24 01:49:41;;;;;;;34.88;7.82;;;12.60;99.90;;;;;;5069330;28;20390;-49
2021/09/24 01:52:06;;;;;;;28.88;7.53;;;12.60;99.90;;;;;;5060731;28;20565;-49
2021/09/24 01:54:32;;;;;;;27.80;5.65;;;12.60;99.90;;;;;;5061140;28;20100;-51
2021/09/24 01:56:58;;;;;;;34.83;7.40;;;12.60;99.90;;;;;;5068274;28;20047;-49
2021/09/24 01:59:23;;;;;;;29.23;6.75;;;12.50;99.90;;;;;;5068851;28;20086;-49
2021/09/24 02:01:49;;;;;;;25.77;5.97;;;12.50;99.90;;;;;;5069056;28;20108;-48
2021/09/24 02:04:16;;;;;;;32.08;7.55;;;12.60;99.90;;;;;;5069301;28;20035;-49
2021/09/24 02:06:42;;;;;;;26.67;7.53;;;12.50;99.90;;;;;;5068259;28;20028;-49
2021/09/24 02:09:08;;;;;;;44.08;7.18;;;12.50;99.90;;;;;;5068967;28;20024;-48
2021/09/24 02:11:33;;;;;;;33.95;7.18;;;12.50;99.90;;;;;;5069076;28;20020;-51
2021/09/24 02:13:59;;;;;;;29.92;7.18;;;12.50;99.90;;;;;;5068844;28;20040;-50
2021/09/24 02:16:25;;;;;;;24.52;6.70;;;12.50;99.90;;;;;;5069152;28;20029;-49
2021/09/24 02:18:50;;;;;;;40.22;6.80;;;12.40;99.90;;;;;;5068458;28;20032;-50
2021/09/24 02:21:16;;;;;;;31.67;6.25;;;12.50;99.90;;;;;;5068966;28;20077;-51
2021/09/24 02:23:41;;;;;;;30.75;6.40;;;12.40;99.90;;;;;;5054683;28;20021;-49
2021/09/24 02:26:07;;;;;;;40.58;6.75;;;12.40;99.90;;;;;;5068850;28;20040;-48
2021/09/24 02:28:33;;;;;;;27.58;5.72;;;12.40;99.90;;;;;;5068334;28;20115;-51
2021/09/24 02:30:58;;;;;;;28.35;6.00;;;12.40;99.90;;;;;;5068663;28;20028;-49
2021/09/24 02:33:24;;;;;;;28.33;6.20;;;12.40;99.90;;;;;;5067232;28;20082;-48
2021/09/24 02:35:49;;;;;;;23.65;5.68;;;12.30;99.90;;;;;;5068885;28;20037;-48
2021/09/24 02:38:15;;;;;;;36.65;6.32;;;12.30;99.90;;;;;;5068076;28;20021;-48
2021/09/24 02:40:41;;;;;;;23.85;5.53;;;12.30;99.90;;;;;;5069014;28;20278;-49
2021/09/24 02:43:06;;;;;;;30.88;6.97;;;12.30;99.90;;;;;;5068642;28;20470;-51
2021/09/24 02:45:32;;;;;;;27.08;6.57;;;12.30;99.90;;;;;;5068541;28;20028;-49
2021/09/24 02:47:57;;;;;;;36.80;7.35;;;12.20;99.90;;;;;;5067874;28;20024;-48
2021/09/24 02:50:23;;;;;;;27.35;6.32;;;12.20;99.90;;;;;;5068648;28;20509;-49
2021/09/24 02:52:48;;;;;;;29.95;6.30;;;12.20;99.90;;;;;;5062550;28;20056;-51
2021/09/24 02:55:20;;;;;;;26.67;6.53;;;12.20;99.90;;;;;;5061488;28;20376;-50
2021/09/24 02:57:46;;;;;;;28.00;6.65;;;12.20;99.90;;;;;;5067939;28;20033;-50
2021/09/24 03:00:12;;;;;;;29.30;6.88;;;12.20;99.90;;;;;;5068201;28;20020;-49
2021/09/24 03:02:37;;;;;;;31.33;6.05;;;12.20;99.90;;;;;;5068381;28;20111;-51
2021/09/24 03:05:05;;;;;;;38.65;6.85;;;12.20;99.90;;;;;;5068499;28;20099;-48
2021/09/24 03:07:30;;;;;;;23.02;6.32;;;12.20;99.90;;;;;;5067509;28;20040;-50
2021/09/24 03:09:55;;;;;;;27.00;6.68;;;12.10;99.90;;;;;;5068295;28;20085;-51
2021/09/24 03:12:21;;;;;;;40.92;7.75;;;12.10;99.90;;;;;;5068559;28;20111;-49
2021/09/24 03:14:46;;;;;;;26.15;6.35;;;12.10;99.90;;;;;;5068320;28;20411;-48
2021/09/24 03:17:12;;;;;;;31.80;6.90;;;12.10;99.90;;;;;;5067685;28;20110;-49
2021/09/24 03:19:38;;;;;;;29.60;6.28;;;12.10;99.90;;;;;;5068420;28;20032;-48
2021/09/24 03:22:03;;;;;;;25.58;5.88;;;12.10;99.90;;;;;;5065653;28;20063;-48
2021/09/24 03:24:29;;;;;;;29.85;5.75;;;12.10;99.90;;;;;;5059726;28;20036;-48
2021/09/24 03:26:54;;;;;;;29.10;6.55;;;12.10;99.90;;;;;;5067482;28;20060;-48
2021/09/24 03:29:20;;;;;;;22.83;5.57;;;12.00;99.90;;;;;;5036459;28;20159;-48
2021/09/24 03:31:45;;;;;;;19.90;5.40;;;12.00;99.90;;;;;;5038101;28;20028;-49
2021/09/24 03:34:11;;;;;;;29.85;6.15;;;12.00;99.90;;;;;;5036525;28;20029;-48
2021/09/24 03:36:38;;;;;;;41.42;7.00;;;12.00;99.90;;;;;;5036478;28;20021;-48
2021/09/24 03:39:07;;;;;;;41.00;7.32;;;12.00;99.90;;;;;;5037880;28;20408;-50
2021/09/24 03:41:33;;;;;;;21.40;6.17;;;12.00;99.90;;;;;;5036564;28;20100;-49
2021/09/24 03:43:59;;;;;;;26.23;6.20;;;12.00;99.90;;;;;;5035995;28;20171;-48
2021/09/24 03:46:24;;;;;;;19.63;5.18;;;12.00;99.90;;;;;;5035528;28;20029;-48
2021/09/24 03:48:50;;;;;;;25.10;5.03;;;12.00;99.90;;;;;;5036976;28;20037;-49
2021/09/24 03:51:15;;;;;;;26.95;5.88;;;12.00;99.90;;;;;;5036869;28;20040;-48
2021/09/24 03:53:41;;;;;;;26.30;6.32;;;12.00;99.90;;;;;;5044914;28;20478;-49
2021/09/24 03:56:07;;;;;;;25.38;5.80;;;12.00;99.90;;;;;;5040950;28;20021;-49
2021/09/24 03:58:32;;;;;;;31.38;5.70;;;11.90;99.90;;;;;;5036482;28;20500;-49
2021/09/24 04:00:58;;;;;;;23.25;5.38;;;11.90;99.90;;;;;;5036239;28;20022;-48
2021/09/24 04:03:23;;;;;;;23.85;5.35;;;12.00;99.90;;;;;;5035710;28;20032;-49
2021/09/24 04:05:49;;;;;;;34.85;5.38;;;11.90;99.90;;;;;;5037415;28;20027;-49
2021/09/24 04:08:14;;;;;;;17.85;4.72;;;11.90;99.90;;;;;;5035749;28;20093;-48
2021/09/24 04:10:41;;;;;;;24.35;5.38;;;11.90;99.90;;;;;;5036211;28;20017;-49
2021/09/24 04:13:07;;;;;;;28.20;5.88;;;11.90;99.90;;;;;;5037784;28;20036;-49
2021/09/24 04:15:32;;;;;;;26.02;5.97;;;11.90;99.90;;;;;;5036300;28;20022;-49
2021/09/24 04:17:58;;;;;;;29.23;5.85;;;12.00;99.90;;;;;;5035545;28;20043;-50
2021/09/24 04:20:23;;;;;;;22.65;5.45;;;11.90;99.90;;;;;;5030541;28;20525;-49
2021/09/24 04:22:49;;;;;;;22.35;5.65;;;11.90;99.90;;;;;;5042582;28;20047;-50
2021/09/24 04:25:15;;;;;;;21.65;5.03;;;11.90;99.90;;;;;;5046603;28;20063;-49
2021/09/24 04:27:40;;;;;;;26.02;4.93;;;11.90;99.90;;;;;;5040429;28;20025;-48
2021/09/24 04:30:07;;;;;;;30.52;5.43;;;11.90;99.90;;;;;;5039309;28;20026;-48
2021/09/24 04:32:33;;;;;;;24.02;5.93;;;11.90;99.90;;;;;;5038772;28;20360;-48
2021/09/24 04:34:59;;;;;;;26.13;6.30;;;11.90;99.90;;;;;;5035996;28;20069;-49
2021/09/24 04:37:24;;;;;;;21.35;4.68;;;11.90;99.90;;;;;;5028805;28;20629;-48
2021/09/24 04:39:50;;;;;;;21.83;5.22;;;11.90;99.90;;;;;;5051140;28;20060;-48
2021/09/24 04:42:15;;;;;;;25.38;5.13;;;11.90;99.90;;;;;;5052635;28;20033;-49
2021/09/24 04:44:41;;;;;;;20.73;4.90;;;11.90;99.90;;;;;;5052608;28;20521;-48
2021/09/24 04:47:06;;;;;;;17.38;5.30;;;11.90;99.90;;;;;;5051775;28;20033;-48
2021/09/24 04:49:32;;;;;;;24.95;5.32;;;11.90;99.90;;;;;;5052415;28;20029;-48
2021/09/24 04:51:58;;;;;;;28.05;5.60;;;11.90;99.90;;;;;;5054352;28;20036;-49
2021/09/24 04:54:23;;;;;;;24.42;5.72;;;11.80;99.90;;;;;;5062563;28;20466;-48
2021/09/24 04:56:49;;;;;;;18.58;5.18;;;11.80;99.90;;;;;;5071826;28;20116;-48
2021/09/24 04:59:14;;;;;;;21.58;6.00;;;11.80;99.90;;;;;;5072258;28;20507;-48
2021/09/24 05:01:40;;;;;;;24.00;4.75;;;11.80;99.90;;;;;;5046187;28;20033;-50
2021/09/24 05:04:05;;;;;;;29.17;6.63;;;11.80;99.90;;;;;;5041440;28;20037;-49
2021/09/24 05:06:34;;;;;;;22.77;4.82;;;11.80;99.90;;;;;;5048307;28;20159;-47
2021/09/24 05:08:59;;;;;;;22.50;5.13;;;11.90;99.90;;;;;;5051348;28;20021;-50
2021/09/24 05:11:24;;;;;;;21.98;4.57;;;11.90;99.90;;;;;;5042247;28;20033;-51
2021/09/24 05:13:50;;;;;;;20.25;4.28;;;11.80;99.90;;;;;;5045265;28;20107;-52
2021/09/24 05:16:16;;;;;;;15.95;4.97;;;11.90;99.90;;;;;;5048273;28;20101;-49
2021/09/24 05:18:43;;;;;;;29.80;5.22;;;11.90;99.90;;;;;;5047995;28;20123;-48
2021/09/24 05:21:08;;;;;;;19.88;4.97;;;11.90;99.90;;;;;;5043493;28;20020;-48
2021/09/24 05:23:34;;;;;;;27.15;4.95;;;11.90;99.90;;;;;;5053631;28;20013;-48
2021/09/24 05:25:59;;;;;;;20.90;5.35;;;11.90;99.90;;;;;;5048219;28;20453;-48
2021/09/24 05:28:25;;;;;;;15.63;4.47;;;11.90;99.90;;;;;;5049103;28;20084;-49
2021/09/24 05:30:50;;;;;;;15.35;5.60;;;12.00;99.90;;;;;;5051764;28;20037;-48
2021/09/24 05:33:16;;;;;;;18.75;4.85;;;12.00;99.90;;;;;;5049078;28;20040;-49
2021/09/24 05:35:42;;;;;;;23.63;4.57;;;12.00;99.90;;;;;;5051543;28;20033;-51
2021/09/24 05:38:07;;;;;;;20.27;5.55;;;12.00;99.90;;;;;;5050618;28;20032;-51
2021/09/24 05:40:33;;;;;;;31.25;5.45;;;12.00;99.90;;;;;;5051366;28;20107;-50
2021/09/24 05:42:58;;;;;;;24.00;5.65;;;12.00;99.90;;;;;;5051354;28;20040;-48
2021/09/24 05:45:24;;;;;;;21.23;5.68;;;12.00;99.90;;;;;;5051185;28;20083;-49
2021/09/24 05:47:49;;;;;;;19.00;4.65;;;12.00;99.90;;;;;;5061293;28;20041;-50
2021/09/24 05:50:16;;;;;;;23.42;5.18;;;12.00;99.90;;;;;;5052820;28;20068;-49
2021/09/24 05:52:47;;;;;;;21.63;6.03;;;12.00;99.90;;;;;;5049470;28;20127;-50
2021/09/24 05:55:13;;;;;;;;;;;12.10;99.90;;;;;;5047765;28;20025;-49
2021/09/24 05:57:38;;;;;;;22.70;5.28;;;12.10;99.90;;;;;;5036584;28;19909;-49
2021/09/24 06:00:06;;;;;;;18.38;5.28;;;12.10;99.90;;;;;;5038260;28;20098;-48
2021/09/24 06:02:32;;;;;;;23.02;5.95;;;12.10;99.90;;;;;;5039714;28;20013;-50
2021/09/24 06:04:58;;;;;;;16.60;4.57;;;12.20;99.90;;;;;;5046642;28;20090;-49
2021/09/24 06:07:24;;;;;;;13.02;5.00;;;12.20;99.90;;;;;;5048125;28;20608;-49
2021/09/24 06:09:50;;;;;;;22.80;5.47;;;12.30;99.90;;;;;;5048954;28;20021;-48
2021/09/24 06:12:15;;;;;;;15.43;5.30;;;12.30;99.90;;;;;;5046902;28;20051;-49
2021/09/24 06:14:41;;;;;;;14.90;5.22;;;12.40;99.90;;;;;;5046553;28;20040;-48
2021/09/24 06:17:09;;;;;;;20.75;5.82;;;12.50;99.90;;;;;;5041936;28;20374;-49
2021/09/24 06:19:35;;;;;;;14.77;4.88;;;12.50;99.90;;;;;;5054668;28;20021;-48
2021/09/24 06:22:00;;;;;;;17.08;5.15;;;12.50;99.90;;;;;;5045381;28;20390;-48
2021/09/24 06:24:26;;;;;;;18.13;5.75;;;12.60;99.90;;;;;;5048813;28;20099;-49
2021/09/24 06:26:51;;;;;;;20.88;5.35;;;12.70;99.90;;;;;;5025533;28;20029;-48
2021/09/24 06:29:17;;;;;;;33.25;7.50;;;12.70;99.90;;;;;;5029031;28;20257;-48
2021/09/24 06:31:42;;;;;;;21.48;6.03;;;12.80;99.90;;;;;;5028785;28;20620;-49
2021/09/24 06:34:08;;;;;;;21.77;4.65;;;12.80;99.90;;;;;;5028992;28;20032;-49
2021/09/24 06:36:33;;;;;;;16.90;5.22;;;12.90;99.90;;;;;;5028598;28;20029;-49
2021/09/24 06:38:59;;;;;;;24.83;5.75;;;13.00;99.90;;;;;;5028469;28;20104;-49
2021/09/24 06:41:24;;;;;;;14.80;4.25;;;13.00;99.90;;;;;;5028804;28;20018;-48
2021/09/24 06:43:50;;;;;;;14.32;4.32;;;13.10;99.90;;;;;;5026971;28;20377;-48
2021/09/24 06:46:15;;;;;;;13.00;4.43;;;13.10;99.90;;;;;;5029186;28;20030;-48
2021/09/24 06:48:41;;;;;;;15.30;3.80;;;13.20;99.90;;;;;;5029944;28;20044;-48
2021/09/24 06:51:06;;;;;;;18.23;4.72;;;13.30;99.90;;;;;;5030314;28;20108;-51
2021/09/24 06:53:33;;;;;;;13.15;3.72;;;13.30;99.90;;;;;;5045645;28;20021;-50
2021/09/24 06:55:59;;;;;;;10.82;4.22;;;13.40;99.90;;;;;;5061158;28;20031;-49
2021/09/24 06:58:25;;;;;;;17.13;4.80;;;13.50;99.90;;;;;;5069537;28;20047;-49
2021/09/24 07:00:51;;;;;;;19.75;9.50;;;13.60;99.90;;;;;;5057718;28;20467;-49
2021/09/24 07:03:16;;;;;;;21.63;7.55;;;13.70;99.90;;;;;;5028578;28;20068;-48
2021/09/24 07:05:42;;;;;;;15.85;3.42;;;13.80;99.90;;;;;;5028468;28;20112;-48
2021/09/24 07:08:07;;;;;;;30.27;4.05;;;13.90;99.90;;;;;;5027574;28;20078;-48
2021/09/24 07:10:33;;;;;;;10.70;3.03;;;14.10;99.90;;;;;;5028519;28;20419;-50
2021/09/24 07:12:58;;;;;;;12.32;4.22;;;14.10;99.90;;;;;;5028279;28;20056;-48
2021/09/24 07:15:24;;;;;;;16.08;4.68;;;14.20;99.90;;;;;;5028301;28;20601;-50
2021/09/24 07:17:49;;;;;;;16.58;4.22;;;14.30;99.90;;;;;;5027643;28;20032;-48
2021/09/24 07:20:15;;;;;;;14.43;3.83;;;14.50;99.90;;;;;;5028274;28;20021;-49
2021/09/24 07:22:41;;;;;;;12.55;3.80;;;14.70;99.90;;;;;;5027821;28;20423;-49
2021/09/24 07:25:07;;;;;;;14.38;3.60;;;14.80;99.90;;;;;;5059688;28;20275;-50
2021/09/24 07:27:33;;;;;;;17.35;3.90;;;14.90;99.90;;;;;;5067055;28;20494;-50
2021/09/24 07:29:59;;;;;;;12.10;3.33;;;14.90;99.90;;;;;;5067740;28;20106;-49
2021/09/24 07:32:25;;;;;;;17.05;3.20;;;15.00;99.90;;;;;;5067233;28;20544;-49
2021/09/24 07:34:50;;;;;;;14.57;3.67;;;15.00;99.90;;;;;;5066315;28;20133;-49
2021/09/24 07:37:16;;;;;;;15.18;3.70;;;15.00;99.90;;;;;;5067041;28;20029;-46
2021/09/24 07:39:42;;;;;;;10.80;3.42;;;15.00;99.90;;;;;;5067884;28;20490;-47
2021/09/24 07:42:08;;;;;;;12.40;4.00;;;15.00;99.90;;;;;;5067313;28;20108;-47
2021/09/24 07:44:33;;;;;;;10.98;2.78;;;15.10;99.90;;;;;;5067487;28;20113;-48
2021/09/24 07:46:59;;;;;;;14.30;3.03;;;15.10;99.90;;;;;;5066805;28;20040;-46
2021/09/24 07:49:25;;;;;;;13.98;3.63;;;15.20;99.90;;;;;;5067860;28;20524;-46
2021/09/24 07:51:53;;;;;;;10.00;2.78;;;15.20;99.90;;;;;;5066245;28;20032;-46
2021/09/24 07:54:21;;;;;;;12.05;3.10;;;15.30;99.90;;;;;;5048099;28;20018;-48
2021/09/24 07:56:48;;;;;;;7.38;2.88;;;15.30;99.90;;;;;;5066625;28;20078;-48
2021/09/24 07:59:13;;;;;;;13.27;2.88;;;15.20;99.90;;;;;;5071670;28;20081;-49
2021/09/24 08:01:39;;;;;;;10.13;3.20;;;15.20;99.90;;;;;;5070316;28;20025;-48
2021/09/24 08:04:04;;;;;;;8.38;3.63;;;15.20;99.90;;;;;;5069552;28;20103;-49
2021/09/24 08:06:30;;;;;;;13.07;2.92;;;15.20;99.90;;;;;;5070923;28;20497;-50
2021/09/24 08:08:55;;;;;;;12.38;3.60;;;15.30;99.90;;;;;;5070810;28;20067;-49
2021/09/24 08:11:20;;;;;;;13.30;3.95;;;15.30;99.90;;;;;;5071429;28;20075;-48
2021/09/24 08:13:46;;;;;;;9.50;2.83;;;15.40;99.90;;;;;;5071331;28;20040;-50
2021/09/24 08:16:11;;;;;;;13.85;3.47;;;15.40;99.90;;;;;;5071564;28;20377;-51
2021/09/24 08:18:37;;;;;;;12.60;3.25;;;15.40;99.90;;;;;;5070471;28;20066;-51
2021/09/24 08:21:04;;;;;;;11.45;3.65;;;15.50;99.90;;;;;;5070420;28;20027;-48
2021/09/24 08:23:30;;;;;;;8.10;3.08;;;15.50;99.90;;;;;;5058637;28;20017;-49
2021/09/24 08:25:55;;;;;;;13.35;3.60;;;15.50;99.90;;;;;;5062134;28;20028;-50
2021/09/24 08:28:22;;;;;;;9.85;3.38;;;15.50;99.90;;;;;;5070046;28;20085;-48
2021/09/24 08:30:47;;;;;;;7.40;3.20;;;15.60;99.90;;;;;;5069107;28;20048;-48
2021/09/24 08:33:14;;;;;;;8.02;2.90;;;15.60;99.90;;;;;;5069248;28;20435;-51
2021/09/24 08:35:41;;;;;;;13.55;3.63;;;15.60;99.90;;;;;;5069101;28;20024;-49
2021/09/24 08:38:07;;;;;;;8.68;3.33;;;15.50;99.90;;;;;;5068314;28;20028;-51
2021/09/24 08:40:33;;;;;;;31.45;5.97;;;15.60;99.90;;;;;;5050195;28;20198;-51
2021/09/24 08:43:00;;;;;;;18.40;4.57;;;15.70;99.90;;;;;;5050067;28;20093;-48
2021/09/24 08:45:27;;;;;;;15.48;4.32;;;15.80;99.90;;;;;;5050232;28;20052;-50
2021/09/24 08:47:55;;;;;;;12.15;3.85;;;15.90;99.90;;;;;;5049500;28;20021;-49
2021/09/24 08:50:21;;;;;;;13.48;3.60;;;15.90;99.90;;;;;;5049291;28;20025;-48
2021/09/24 08:52:47;;;;;;;9.00;3.50;;;16.00;99.90;;;;;;5024762;28;20044;-51
2021/09/24 08:55:13;;;;;;;10.50;3.13;;;16.20;99.90;;;;;;5051774;28;20392;-50
2021/09/24 08:57:41;;;;;;;13.63;4.20;;;16.30;99.90;;;;;;5057419;28;20497;-48
2021/09/24 09:00:08;;;;;;;13.27;3.70;;;16.30;99.90;;;;;;5049326;28;20143;-48
2021/09/24 09:02:52;;;;;;;7.13;2.90;;;16.40;99.90;;;;;;5045127;28;20040;-51
2021/09/24 09:05:19;;;;;;;10.70;3.55;;;16.40;99.90;;;;;;5049762;28;20305;-48
2021/09/24 09:07:45;;;;;;;8.38;3.22;;;16.40;99.90;;;;;;5047195;28;20017;-48
2021/09/24 09:10:11;;;;;;;8.23;3.45;;;16.40;99.90;;;;;;5049711;28;20021;-50
2021/09/24 09:12:37;;;;;;;15.05;3.50;;;16.40;99.90;;;;;;5049226;28;20513;-50
2021/09/24 09:15:10;;;;;;;11.93;3.95;;;16.50;99.90;;;;;;5049035;28;20271;-48
2021/09/24 09:17:37;;;;;;;10.27;3.58;;;16.60;99.90;;;;;;5049277;28;20127;-48
2021/09/24 09:20:11;;;;;;;11.75;3.80;;;16.80;99.90;;;;;;5049127;28;20166;-50
2021/09/24 09:22:37;;;;;;;8.77;2.88;;;17.00;99.90;;;;;;5048820;28;20021;-50
2021/09/24 09:25:05;;;;;;;12.95;3.40;;;17.10;99.90;;;;;;5059984;28;20035;-50
2021/09/24 09:27:31;;;;;;;6.72;2.95;;;17.20;99.90;;;;;;5068880;28;20013;-50
2021/09/24 09:30:01;;;;;;;9.15;2.97;;;17.20;99.90;;;;;;5069261;28;20040;-48
2021/09/24 09:32:26;;;;;;;8.50;2.83;;;17.20;99.90;;;;;;5069356;28;20481;-51
2021/09/24 09:34:52;;;;;;;8.93;3.28;;;17.20;99.90;;;;;;5068828;28;20051;-48
2021/09/24 09:37:20;;;;;;;16.38;3.80;;;17.20;99.90;;;;;;5068123;28;20106;-49
2021/09/24 09:40:02;;;;;;;9.85;3.22;;;17.20;99.90;;;;;;5068602;28;20032;-49
2021/09/24 09:42:33;;;;;;;10.32;2.88;;;17.10;99.90;;;;;;5066922;28;20474;-50
2021/09/24 09:44:59;;;;;;;12.82;3.20;;;17.10;99.90;;;;;;5048557;28;20112;-52
2021/09/24 09:47:37;;;;;;;7.35;3.00;;;17.10;99.90;;;;;;5048724;28;20184;-48
2021/09/24 09:50:17;;;;;;;9.73;2.90;;;17.00;99.90;;;;;;5047706;28;20021;-48
2021/09/24 09:53:12;;;;;;;11.63;3.17;;;17.10;99.90;;;;;;5042527;28;20501;-50
2021/09/24 09:56:02;;;;;;;9.13;3.08;;;17.00;99.90;;;;;;5044569;28;20029;-48
2021/09/24 09:58:33;;;;;;;10.27;3.17;;;16.90;99.90;;;;;;5048441;28;20419;-49
2021/09/24 10:01:09;;;;;;;11.73;3.05;;;17.00;99.90;;;;;;5047814;28;20017;-51
2021/09/24 10:03:46;;;;;;;8.45;2.78;;;17.00;99.90;;;;;;5041519;28;20035;-48
2021/09/24 10:06:24;;;;;;;8.85;2.92;;;17.00;99.90;;;;;;5028777;28;20045;-50
2021/09/24 10:08:51;;;;;;;9.18;3.13;;;17.10;99.90;;;;;;5027639;28;20407;-52
2021/09/24 10:11:19;;;;;;;11.02;2.95;;;17.10;99.90;;;;;;5028370;28;20487;-50
2021/09/24 10:14:01;;;;;;;6.38;2.33;;;17.10;99.90;;;;;;5028448;28;20045;-49
2021/09/24 10:16:30;;;;;;;7.93;2.53;;;17.30;99.90;;;;;;5028863;28;20061;-49
2021/09/24 10:18:56;;;;;;;12.40;2.47;;;17.30;99.90;;;;;;5027451;28;20029;-50
2021/09/24 10:21:22;;;;;;;8.77;2.50;;;17.40;99.90;;;;;;5028411;28;20372;-49
2021/09/24 10:23:48;;;;;;;8.80;2.00;;;17.50;99.90;;;;;;5045193;28;20108;-46
2021/09/24 10:26:22;;;;;;;13.70;3.05;;;17.50;99.90;;;;;;5060701;28;20115;-48
2021/09/24 10:28:48;;;;;;;10.18;2.50;;;17.50;99.90;;;;;;5067863;28;20028;-47
2021/09/24 10:31:17;;;;;;;14.38;2.95;;;17.40;99.90;;;;;;5068345;28;20040;-51
2021/09/24 10:33:55;;;;;;;5.43;2.30;;;17.40;99.90;;;;;;5068560;28;20025;-49
2021/09/24 10:36:40;;;;;;;7.47;2.58;;;17.40;99.90;;;;;;5067888;28;20032;-51
2021/09/24 10:39:31;;;;;;;9.38;2.92;;;17.70;99.90;;;;;;5068058;28;20051;-48
2021/09/24 10:42:15;;;;;;;7.03;2.85;;;18.10;99.90;;;;;;5068658;28;20112;-49
2021/09/24 10:45:05;;;;;;;7.88;2.80;;;18.30;99.90;;;;;;5068150;28;20486;-47
2021/09/24 10:47:51;;;;;;;8.15;2.70;;;18.60;99.90;;;;;;5066518;28;20414;-48
2021/09/24 10:50:29;;;;;;;14.82;4.80;;;18.80;99.90;;;;;;5067849;28;20584;-47
2021/09/24 10:53:10;;;;;;;6.03;2.75;;;18.90;99.90;;;;;;5056493;28;20495;-46
2021/09/24 10:55:43;;;;;;;9.25;2.92;;;19.00;99.90;;;;;;5048285;28;20071;-49
2021/09/24 10:58:26;;;;;;;13.07;2.67;;;19.20;99.90;;;;;;5039468;28;20078;-47
2021/09/24 11:00:59;;;;;;;8.48;2.33;;;19.00;99.90;;;;;;5038861;28;20091;-47
2021/09/24 11:03:29;;;;;;;7.95;2.70;;;18.90;99.90;;;;;;5036440;28;20025;-46
2021/09/24 11:06:04;;;;;;;12.97;2.63;;;18.60;99.90;;;;;;5026995;28;20491;-49
2021/09/24 11:08:32;;;;;;;8.35;2.83;;;18.50;99.90;;;;;;5027616;28;20563;-46
2021/09/24 11:11:08;;;;;;;9.15;2.35;;;18.50;99.90;;;;;;5028028;28;20025;-48
2021/09/24 11:13:48;;;;;;;9.13;3.08;;;18.30;99.90;;;;;;5027588;28;20030;-47
2021/09/24 11:16:43;;;;;;;9.13;2.85;;;18.20;99.90;;;;;;5027985;28;20044;-47
2021/09/24 11:19:43;;;;;;;11.57;2.72;;;18.10;99.90;;;;;;5032784;28;20056;-47
2021/09/24 11:22:14;;;;;;;6.97;2.50;;;18.10;99.90;;;;;;5037079;28;20013;-47
2021/09/24 11:25:02;;;;;;;10.43;2.85;;;18.10;99.90;;;;;;5041880;28;20383;-48
2021/09/24 11:27:40;;;;;;;7.95;3.10;;;18.10;99.90;;;;;;5036051;28;20021;-47
2021/09/24 11:30:06;;;;;;;6.45;2.75;;;18.10;99.90;;;;;;5031047;28;20423;-49
2021/09/24 11:32:33;;;;;;;13.20;4.15;;;18.10;99.90;;;;;;5046328;28;20025;-48
2021/09/24 11:34:59;;;;;;;39.88;22.77;;;18.00;99.90;;;;;;5049273;28;20306;-48
2021/09/24 11:37:33;;;;;;;14.35;6.47;;;17.90;99.90;;;;;;5050256;28;20033;-47
2021/09/24 11:40:08;;;;;;;11.68;3.55;;;17.80;99.90;;;;;;5047449;28;20037;-46
2021/09/24 11:42:37;;;;;;;8.55;3.15;;;17.80;99.90;;;;;;5047455;28;20161;-46
2021/09/24 11:45:06;;;;;;;5.20;3.40;;;17.90;99.90;;;;;;5051239;28;20024;-48
2021/09/24 11:47:40;;;;;;;11.27;3.67;;;17.80;99.90;;;;;;5044603;28;20017;-47
2021/09/24 11:50:18;;;;;;;8.30;3.53;;;17.90;99.90;;;;;;5046205;28;20033;-47
2021/09/24 11:52:49;;;;;;;9.52;3.20;;;17.90;99.90;;;;;;5039184;28;20856;-50
2021/09/24 11:55:29;;;;;;;9.98;3.70;;;18.00;99.90;;;;;;5059306;28;20031;-47
2021/09/24 11:58:04;;;;;;;8.10;3.20;;;18.00;99.90;;;;;;5050331;28;20021;-46
2021/09/24 12:00:39;;;;;;;6.72;3.58;;;18.00;99.90;;;;;;5050184;28;20021;-47
2021/09/24 12:03:09;;;;;;;8.43;3.47;;;18.10;99.90;;;;;;5048013;28;20505;-47
2021/09/24 12:05:36;;;;;;;9.20;2.97;;;18.20;99.90;;;;;;5050497;28;20025;-47
2021/09/24 12:08:02;;;;;;;8.13;3.05;;;18.40;99.90;;;;;;5047340;28;20048;-44
2021/09/24 12:10:29;;;;;;;9.10;3.58;;;18.50;99.90;;;;;;5049173;28;20460;-44
2021/09/24 12:13:16;;;;;;;5.25;3.10;;;18.60;99.90;;;;;;5050168;28;20085;-44
2021/09/24 12:15:56;;;;;;;7.45;3.80;;;18.60;99.90;;;;;;5049658;28;20090;-45
2021/09/24 12:18:23;;;;;;;13.23;3.83;;;18.60;99.90;;;;;;5044415;28;20120;-46
2021/09/24 12:20:58;;;;;;;13.20;3.58;;;18.50;99.90;;;;;;5050785;28;20498;-45
2021/09/24 12:23:24;;;;;;;8.35;3.38;;;18.50;99.90;;;;;;5052655;28;20027;-44
2021/09/24 12:25:58;;;;;;;12.70;3.72;;;18.50;99.90;;;;;;5062179;28;20389;-45
2021/09/24 12:28:23;;;;;;;25.73;13.68;;;18.50;99.90;;;;;;5047849;28;20114;-45
2021/09/24 12:30:49;;;;;;;11.10;4.30;;;18.50;99.90;;;;;;5048655;28;20479;-44
2021/09/24 12:33:16;;;;;;;16.30;3.60;;;18.50;99.90;;;;;;5049469;28;20032;-45
2021/09/24 12:36:03;;;;;;;10.82;3.90;;;18.60;99.90;;;;;;5050551;28;20049;-46
2021/09/24 12:38:34;;;;;;;15.55;3.97;;;18.50;99.90;;;;;;5049295;28;20510;-44
2021/09/24 12:41:15;;;;;;;10.98;4.07;;;18.40;99.90;;;;;;5050020;28;20029;-45